Time;durP1;ratioP1;P1;durP2;ratioP2;P2;SDS_P1;SDS_P2;PMS_P1;PMS_P2;Temp;Humidity;BMP_temperature;BMP_pressure;BME280_temperature;BME280_humidity;BME280_pressure;Samples;Min_cycle;Max_cycle;Signal;HPM_P1;HPM_P2
2022/07/16 00:02:39;;;;;;;5.47;2.22;;;;;;;18.11;64.10;102044.69;5013757;28;20084;-33
2022/07/16 00:05:05;;;;;;;8.13;2.30;;;;;;;18.00;64.47;102039.06;5013605;28;20021;-34
2022/07/16 00:07:31;;;;;;;5.78;2.20;;;;;;;17.85;65.08;102038.53;5013875;28;20539;-35
2022/07/16 00:09:58;;;;;;;5.13;2.40;;;;;;;18.09;64.61;102041.47;5013108;28;20030;-34
2022/07/16 00:12:24;;;;;;;6.15;2.30;;;;;;;18.03;65.21;102035.25;5013884;28;20033;-34
2022/07/16 00:14:49;;;;;;;5.20;2.40;;;;;;;18.01;65.26;102040.69;5013575;28;20084;-35
2022/07/16 00:17:14;;;;;;;6.53;2.58;;;;;;;18.13;65.12;102037.44;5014089;28;20017;-34
2022/07/16 00:19:39;;;;;;;5.22;2.50;;;;;;;18.10;65.47;102037.88;5013510;28;20026;-33
2022/07/16 00:22:05;;;;;;;3.80;2.30;;;;;;;17.99;65.64;102028.84;5013823;28;20033;-33
2022/07/16 00:24:30;;;;;;;6.72;2.45;;;;;;;18.01;65.83;102032.03;5013516;28;20373;-34
2022/07/16 00:26:55;;;;;;;4.70;2.42;;;;;;;18.12;65.70;102031.38;5012365;28;20109;-35
2022/07/16 00:29:21;;;;;;;4.65;2.30;;;;;;;18.09;65.95;102023.97;5012161;28;20030;-35
2022/07/16 00:31:48;;;;;;;5.07;2.38;;;;;;;18.14;65.75;102031.19;5013451;28;20431;-34
2022/07/16 00:34:15;;;;;;;6.97;2.38;;;;;;;18.13;65.74;102025.16;5013290;28;20500;-33
2022/07/16 00:36:41;;;;;;;6.30;2.20;;;;;;;18.10;66.08;102030.00;5013372;28;20508;-33
2022/07/16 00:39:08;;;;;;;8.23;2.33;;;;;;;18.12;66.18;102027.97;5013654;28;20445;-33
2022/07/16 00:41:35;;;;;;;5.93;2.50;;;;;;;17.99;66.65;102028.84;5013306;28;20029;-34
2022/07/16 00:44:04;;;;;;;10.48;2.50;;;;;;;18.06;66.62;102023.56;5013359;28;20107;-33
2022/07/16 00:46:29;;;;;;;4.78;2.20;;;;;;;18.00;67.05;102031.22;5013112;28;20030;-34
2022/07/16 00:48:56;;;;;;;5.57;2.17;;;;;;;17.99;67.27;102029.63;5013547;28;20109;-34
2022/07/16 00:51:22;;;;;;;7.53;2.80;;;;;;;18.03;67.11;102030.00;5013304;28;20029;-35
2022/07/16 00:53:48;;;;;;;8.38;2.47;;;;;;;18.17;67.09;102030.78;5016468;28;20026;-35
2022/07/16 00:56:14;;;;;;;4.35;2.45;;;;;;;18.06;67.46;102021.75;5017239;28;20053;-34
2022/07/16 00:58:42;;;;;;;9.32;2.47;;;;;;;18.08;67.71;102024.19;5017191;28;20072;-34
2022/07/16 01:01:08;;;;;;;8.50;2.40;;;;;;;18.20;67.57;102019.91;5017044;28;20022;-34
2022/07/16 01:03:34;;;;;;;6.00;2.30;;;;;;;18.14;67.86;102018.91;5016762;28;20026;-34
2022/07/16 01:06:00;;;;;;;6.68;2.28;;;;;;;18.10;68.38;102019.56;5016761;28;20030;-34
2022/07/16 01:08:26;;;;;;;6.97;2.55;;;;;;;18.00;68.89;102015.53;5016573;28;20492;-34
2022/07/16 01:10:53;;;;;;;5.15;2.45;;;;;;;18.17;68.71;102015.09;5016763;28;20049;-36
2022/07/16 01:13:18;;;;;;;6.55;2.15;;;;;;;18.18;68.82;102022.75;5016681;28;20022;-35
2022/07/16 01:15:44;;;;;;;5.20;2.30;;;;;;;18.02;69.39;102017.97;5016831;28;20354;-34
2022/07/16 01:18:09;;;;;;;5.50;2.20;;;;;;;18.07;69.62;102022.56;5016922;28;20129;-34
2022/07/16 01:20:34;;;;;;;4.70;2.40;;;;;;;18.09;69.71;102023.16;5016802;28;20447;-34
2022/07/16 01:23:00;;;;;;;6.80;2.10;;;;;;;18.13;69.67;102019.13;5016561;28;20469;-34
2022/07/16 01:25:26;;;;;;;6.95;2.35;;;;;;;17.99;70.36;102015.75;5016752;28;20428;-35
2022/07/16 01:27:51;;;;;;;5.90;2.78;;;;;;;18.00;70.49;102018.16;5016705;28;20037;-35
2022/07/16 01:30:16;;;;;;;7.50;2.22;;;;;;;17.86;70.61;101998.28;5016628;28;20465;-35
2022/07/16 01:32:42;;;;;;;5.15;2.20;;;;;;;18.01;70.73;102018.94;5016634;28;20034;-36
2022/07/16 01:35:07;;;;;;;5.20;2.50;;;;;;;17.86;71.34;102019.19;5016517;28;20377;-34
2022/07/16 01:37:33;;;;;;;4.40;2.30;;;;;;;17.89;71.41;102025.84;5016786;28;20396;-34
2022/07/16 01:39:58;;;;;;;7.18;2.70;;;;;;;17.88;71.65;102019.81;5016416;28;20030;-33
2022/07/16 01:42:24;;;;;;;4.60;2.70;;;;;;;17.78;72.18;102016.78;5016194;28;20033;-35
2022/07/16 01:44:49;;;;;;;5.55;2.42;;;;;;;17.75;72.60;102015.38;5016057;28;20029;-33
2022/07/16 01:47:14;;;;;;;6.93;2.50;;;;;;;17.81;72.51;102021.66;5015943;28;20385;-34
2022/07/16 01:49:40;;;;;;;5.97;2.50;;;;;;;17.69;73.12;102018.78;5015989;28;20117;-34
2022/07/16 01:52:16;;;;;;;8.55;2.80;;;;;;;17.62;73.97;102025.06;5015891;28;20513;-33
2022/07/16 01:54:50;;;;;;;6.47;2.88;;;;;;;17.52;74.27;102020.22;5015757;28;20034;-34
2022/07/16 01:57:16;;;;;;;7.50;2.72;;;;;;;17.54;74.48;102031.28;5016104;28;20496;-33
2022/07/16 01:59:42;;;;;;;8.43;2.97;;;;;;;17.51;74.74;102032.50;5016364;28;20113;-33
2022/07/16 02:02:08;;;;;;;5.63;2.75;;;;;;;17.45;75.33;102032.50;5016039;28;20413;-35
2022/07/16 02:04:34;;;;;;;4.93;2.63;;;;;;;17.44;75.45;102026.47;5015168;28;20037;-34
2022/07/16 02:07:00;;;;;;;5.07;2.70;;;;;;;17.31;75.82;102036.94;5015586;28;20061;-36
2022/07/16 02:09:25;;;;;;;8.77;2.90;;;;;;;17.30;76.09;102036.13;5015614;28;20026;-34
2022/07/16 02:11:51;;;;;;;4.97;2.72;;;;;;;17.44;75.85;102031.72;5015481;28;20152;-34
2022/07/16 02:14:16;;;;;;;8.63;2.85;;;;;;;17.28;76.48;102032.91;5015437;28;20040;-33
2022/07/16 02:16:41;;;;;;;9.32;3.22;;;;;;;17.16;76.99;102031.91;5015500;28;20496;-34
2022/07/16 02:19:07;;;;;;;7.70;2.95;;;;;;;17.14;76.94;102041.75;5015691;28;20029;-35
2022/07/16 02:21:32;;;;;;;5.63;2.97;;;;;;;17.05;77.69;102035.09;5015277;28;20030;-34
2022/07/16 02:23:58;;;;;;;5.43;3.00;;;;;;;16.98;78.35;102032.50;5015820;28;20054;-35
2022/07/16 02:26:24;;;;;;;5.55;3.10;;;;;;;16.94;78.53;102031.25;5015183;28;20064;-35
2022/07/16 02:28:49;;;;;;;7.35;2.97;;;;;;;16.88;78.41;102019.81;5015471;28;20030;-34
2022/07/16 02:31:15;;;;;;;6.32;3.10;;;;;;;16.90;78.68;102032.69;5015710;28;20025;-35
2022/07/16 02:33:40;;;;;;;7.20;3.25;;;;;;;16.88;79.28;102034.66;5015044;28;20393;-35
2022/07/16 02:36:06;;;;;;;6.63;2.83;;;;;;;16.82;79.40;102038.88;5015072;28;20021;-36
2022/07/16 02:38:31;;;;;;;5.95;2.95;;;;;;;16.80;79.88;102035.69;5015025;28;20029;-33
2022/07/16 02:40:56;;;;;;;9.35;3.20;;;;;;;16.71;80.10;102047.25;5014903;28;20421;-34
2022/07/16 02:43:21;;;;;;;5.65;2.80;;;;;;;16.77;79.87;102045.69;5013656;28;20021;-34
2022/07/16 02:45:47;;;;;;;7.85;3.17;;;;;;;16.60;81.05;102045.22;5014870;28;20032;-34
2022/07/16 02:48:12;;;;;;;6.05;3.00;;;;;;;16.68;81.13;102039.81;5015406;28;20029;-34
2022/07/16 02:50:38;;;;;;;8.68;3.08;;;;;;;16.49;81.46;102020.50;5015107;28;20022;-35
2022/07/16 02:53:04;;;;;;;9.68;3.10;;;;;;;16.67;81.34;102043.44;5015111;28;20092;-33
2022/07/16 02:55:30;;;;;;;10.10;2.85;;;;;;;16.63;81.87;102045.63;5014569;28;20030;-34
2022/07/16 02:57:56;;;;;;;5.90;2.50;;;;;;;16.64;82.13;102047.25;5014637;28;20105;-33
2022/07/16 03:00:22;;;;;;;7.47;2.85;;;;;;;16.64;82.47;102056.88;5014813;28;20422;-34
2022/07/16 03:02:48;;;;;;;6.13;2.40;;;;;;;16.60;82.91;102064.31;5014832;28;20108;-34
2022/07/16 03:05:14;;;;;;;8.13;2.35;;;;;;;16.67;83.13;102075.56;5014516;28;20113;-33
2022/07/16 03:07:39;;;;;;;6.32;2.30;;;;;;;16.74;82.88;102072.94;5014366;28;20117;-34
2022/07/16 03:10:06;;;;;;;6.00;2.20;;;;;;;16.65;84.02;102074.13;5014937;28;20033;-33
2022/07/16 03:12:32;;;;;;;4.90;2.17;;;;;;;16.76;84.02;102070.16;5014966;28;20026;-35
2022/07/16 03:14:58;;;;;;;6.93;2.30;;;;;;;16.76;84.19;102083.22;5013793;28;20361;-34
2022/07/16 03:17:23;;;;;;;7.55;2.33;;;;;;;16.72;85.28;102087.22;5014598;28;20109;-34
2022/07/16 03:19:48;;;;;;;6.95;2.25;;;;;;;16.70;85.50;102083.00;5014261;28;20030;-35
2022/07/16 03:22:14;;;;;;;6.90;2.08;;;;;;;16.74;86.07;102080.00;5014519;28;20029;-34
2022/07/16 03:24:39;;;;;;;6.30;2.08;;;;;;;16.80;85.80;102081.84;5014229;28;20067;-34
2022/07/16 03:27:05;;;;;;;7.40;2.13;;;;;;;16.77;86.45;102093.47;5014148;28;20029;-35
2022/07/16 03:29:30;;;;;;;11.38;2.47;;;;;;;16.81;86.48;102083.47;5014745;28;20364;-34
2022/07/16 03:31:55;;;;;;;5.53;1.80;;;;;;;16.85;86.21;102087.28;5014087;28;20061;-35
2022/07/16 03:34:21;;;;;;;6.97;2.00;;;;;;;16.79;86.17;102098.50;5014245;28;20026;-35
2022/07/16 03:36:47;;;;;;;6.82;1.70;;;;;;;16.98;85.68;102091.75;5014095;28;20026;-34
2022/07/16 03:39:12;;;;;;;4.55;1.77;;;;;;;16.95;85.15;102100.78;5014280;28;20018;-35
2022/07/16 03:41:38;;;;;;;3.13;1.50;;;;;;;17.00;85.13;102105.41;5013907;28;20021;-34
2022/07/16 03:44:06;;;;;;;4.63;1.70;;;;;;;16.96;84.78;102106.81;5014606;28;20109;-35
2022/07/16 03:46:31;;;;;;;6.43;1.77;;;;;;;17.03;84.06;102111.06;5013887;28;20030;-34
2022/07/16 03:48:58;;;;;;;7.95;1.55;;;;;;;17.01;83.79;102120.88;5014384;28;20468;-35
2022/07/16 03:51:23;;;;;;;5.10;1.50;;;;;;;17.08;83.48;102110.44;5014456;28;20105;-35
2022/07/16 03:53:49;;;;;;;7.47;1.52;;;;;;;17.14;82.52;102114.88;5013967;28;20122;-36
2022/07/16 03:56:14;;;;;;;5.53;1.52;;;;;;;17.05;81.38;102116.06;5013652;28;20021;-34
2022/07/16 03:58:40;;;;;;;4.13;1.30;;;;;;;16.98;81.71;102120.47;5013704;28;20072;-34
2022/07/16 04:01:05;;;;;;;2.88;1.30;;;;;;;16.98;81.49;102121.28;5014298;28;20053;-34
2022/07/16 04:03:32;;;;;;;3.42;1.30;;;;;;;16.99;81.15;102125.47;5013990;28;20029;-34
2022/07/16 04:05:57;;;;;;;5.75;1.13;;;;;;;16.83;81.50;102134.50;5014190;28;20061;-34
2022/07/16 04:08:23;;;;;;;3.63;1.40;;;;;;;16.86;81.69;102133.25;5012127;28;20084;-34
2022/07/16 04:10:48;;;;;;;3.08;1.30;;;;;;;16.88;81.43;102137.28;5013574;28;20018;-34
2022/07/16 04:13:13;;;;;;;6.03;1.42;;;;;;;16.91;81.50;102139.50;5013994;28;20026;-34
2022/07/16 04:15:39;;;;;;;5.43;1.30;;;;;;;16.96;80.07;102133.72;5013470;28;20363;-34
2022/07/16 04:18:04;;;;;;;7.70;1.23;;;;;;;16.86;80.79;102143.72;5012281;28;20026;-34
2022/07/16 04:20:30;;;;;;;6.95;1.60;;;;;;;16.78;80.72;102141.28;5013777;28;20057;-34
2022/07/16 04:22:55;;;;;;;7.05;1.60;;;;;;;16.74;80.55;102142.63;5013647;28;20021;-33
2022/07/16 04:25:20;;;;;;;5.13;1.33;;;;;;;16.84;80.22;102148.34;5013722;28;20022;-35
2022/07/16 04:27:46;;;;;;;5.28;1.30;;;;;;;16.86;79.52;102154.97;5016982;28;20126;-36
2022/07/16 04:30:12;;;;;;;8.00;1.50;;;;;;;16.77;79.51;102155.31;5017659;28;20477;-34
2022/07/16 04:32:38;;;;;;;3.33;1.50;;;;;;;16.76;79.63;102144.09;5017374;28;20057;-34
2022/07/16 04:35:05;;;;;;;5.28;1.35;;;;;;;16.67;79.40;102155.66;5017815;28;20062;-34
2022/07/16 04:37:31;;;;;;;4.10;1.40;;;;;;;16.69;79.12;102151.06;5017290;28;20432;-35
2022/07/16 04:39:56;;;;;;;5.47;1.48;;;;;;;16.78;78.80;102159.56;5016290;28;20022;-34
2022/07/16 04:42:21;;;;;;;5.82;1.58;;;;;;;16.79;78.29;102155.94;5017215;28;20021;-36
2022/07/16 04:44:46;;;;;;;5.85;1.60;;;;;;;16.75;78.55;102165.16;5017117;28;20060;-34
2022/07/16 04:47:12;;;;;;;5.47;1.60;;;;;;;16.83;78.62;102163.22;5017048;28;20108;-34
2022/07/16 04:49:37;;;;;;;5.70;1.58;;;;;;;16.91;77.91;102170.03;5017321;28;20021;-34
2022/07/16 04:52:03;;;;;;;5.45;1.70;;;;;;;16.92;77.54;102172.47;5017248;28;20029;-33
2022/07/16 04:54:29;;;;;;;5.53;1.60;;;;;;;17.00;77.05;102171.47;5017144;28;20030;-34
2022/07/16 04:56:54;;;;;;;6.22;1.50;;;;;;;17.05;76.64;102178.75;5016830;28;20033;-34
2022/07/16 04:59:19;;;;;;;6.95;1.67;;;;;;;16.98;77.50;102183.16;5016853;28;20075;-35
2022/07/16 05:01:45;;;;;;;6.10;1.70;;;;;;;17.10;76.87;102182.38;5016856;28;20508;-34
2022/07/16 05:04:10;;;;;;;6.78;1.65;;;;;;;16.96;76.09;102187.75;5016799;28;20104;-36
2022/07/16 05:06:35;;;;;;;5.05;1.85;;;;;;;16.98;74.81;102191.78;5016837;28;20057;-35
2022/07/16 05:09:03;;;;;;;4.63;1.60;;;;;;;16.98;75.17;102186.56;5016722;28;20092;-34
2022/07/16 05:11:29;;;;;;;5.90;1.55;;;;;;;17.06;74.72;102191.63;5016985;28;20442;-35
2022/07/16 05:13:55;;;;;;;5.47;1.50;;;;;;;17.23;73.29;102191.25;5031674;28;20113;-35
2022/07/16 05:16:20;;;;;;;4.85;1.50;;;;;;;17.26;72.53;102198.69;5016500;28;20025;-35
2022/07/16 05:18:47;;;;;;;6.65;1.58;;;;;;;17.10;72.39;102184.19;5016547;28;20080;-36
2022/07/16 05:21:12;;;;;;;7.53;1.90;;;;;;;17.21;72.31;102198.50;5032006;28;20029;-33
2022/07/16 05:23:37;;;;;;;7.55;1.70;;;;;;;17.32;72.14;102206.56;5016370;28;20109;-34
2022/07/16 05:26:03;;;;;;;5.43;1.58;;;;;;;17.33;72.38;102200.31;5016625;28;20025;-35
2022/07/16 05:28:28;;;;;;;6.60;1.75;;;;;;;17.43;72.51;102206.97;5016659;28;20078;-34
2022/07/16 05:30:54;;;;;;;4.68;1.70;;;;;;;17.47;72.02;102209.00;5016278;28;20026;-36
2022/07/16 05:33:19;;;;;;;10.80;2.03;;;;;;;17.52;72.18;102211.84;5016161;28;20018;-34
2022/07/16 05:35:44;;;;;;;5.18;1.77;;;;;;;17.56;71.50;102218.28;5014745;28;20466;-38
2022/07/16 05:38:10;;;;;;;5.68;1.63;;;;;;;17.68;70.32;102215.88;5015494;28;20029;-34
2022/07/16 05:40:36;;;;;;;8.63;1.60;;;;;;;17.58;68.36;102215.47;5016799;28;20408;-33
2022/07/16 05:43:01;;;;;;;4.82;1.42;;;;;;;17.65;68.62;102221.50;5016148;28;20033;-34
2022/07/16 05:45:27;;;;;;;5.07;1.50;;;;;;;17.70;68.22;102210.47;5016582;28;20026;-33
2022/07/16 05:47:52;;;;;;;6.28;1.50;;;;;;;17.85;68.25;102211.09;5016465;28;20022;-36
2022/07/16 05:50:17;;;;;;;8.63;1.58;;;;;;;17.97;67.43;102221.75;5016193;28;20496;-34
2022/07/16 05:52:42;;;;;;;10.63;1.55;;;;;;;18.08;67.29;102223.78;5015870;28;20036;-34
2022/07/16 05:55:08;;;;;;;6.68;1.65;;;;;;;24.51;50.76;102225.91;5015948;28;20117;-34
2022/07/16 05:57:33;;;;;;;4.88;1.63;;;;;;;28.15;40.02;102230.41;5016163;28;20021;-34
2022/07/16 05:59:59;;;;;;;6.20;1.40;;;;;;;29.43;35.24;102226.00;5015759;28;20080;-34
2022/07/16 06:02:24;;;;;;;6.10;1.20;;;;;;;29.48;35.13;102235.78;5014708;28;20052;-35
2022/07/16 06:04:51;;;;;;;10.75;1.40;;;;;;;30.68;33.32;102213.72;5015888;28;20109;-37
2022/07/16 06:07:17;;;;;;;3.58;1.38;;;;;;;29.25;33.91;102239.97;5015579;28;20046;-37
2022/07/16 06:09:46;;;;;;;3.88;1.30;;;;;;;30.31;33.56;102239.25;4998193;28;20037;-39
2022/07/16 06:12:16;;;;;;;5.25;1.30;;;;;;;29.71;34.43;102247.59;5030942;28;20026;-35
2022/07/16 06:14:42;;;;;;;4.70;1.25;;;;;;;28.03;37.42;102228.84;5014113;28;20053;-35
2022/07/16 06:17:13;;;;;;;5.10;1.33;;;;;;;26.71;39.08;102240.16;5014298;28;20116;-35
2022/07/16 06:19:43;;;;;;;5.47;1.58;;;;;;;29.15;35.14;102240.84;5030718;28;20168;-35
2022/07/16 06:22:09;;;;;;;6.07;1.70;;;;;;;28.11;36.72;102246.91;4997949;28;20037;-34
2022/07/16 06:24:35;;;;;;;5.53;1.50;;;;;;;25.76;41.35;102251.50;5015318;28;20021;-34
2022/07/16 06:27:00;;;;;;;5.25;1.30;;;;;;;29.20;34.65;102251.47;5015310;28;20029;-34
2022/07/16 06:29:25;;;;;;;5.53;1.45;;;;;;;29.15;34.73;102254.16;5030374;28;20022;-35
2022/07/16 06:31:51;;;;;;;5.18;1.27;;;;;;;30.21;32.74;102248.19;5015582;28;20034;-33
2022/07/16 06:34:16;;;;;;;9.60;1.65;;;;;;;31.53;30.93;102251.94;5015004;28;20033;-36
2022/07/16 06:36:41;;;;;;;5.30;1.40;;;;;;;32.15;29.02;102257.78;5015071;28;20042;-33
2022/07/16 06:39:08;;;;;;;7.32;1.42;;;;;;;32.22;28.97;102252.81;5015035;28;20358;-34
2022/07/16 06:41:35;;;;;;;9.90;1.60;;;;;;;32.28;28.72;102262.31;5015161;28;20036;-34
2022/07/16 06:44:00;;;;;;;6.15;1.50;;;;;;;33.31;27.56;102265.44;5015178;28;20494;-35
2022/07/16 06:46:25;;;;;;;3.80;1.05;;;;;;;31.83;28.01;102262.09;5015202;28;20100;-34
2022/07/16 06:48:51;;;;;;;4.05;1.20;;;;;;;31.07;29.91;102276.69;5015146;28;20053;-36
2022/07/16 06:51:16;;;;;;;5.22;1.10;;;;;;;29.27;31.41;102282.31;5014825;28;20022;-35
2022/07/16 06:53:42;;;;;;;3.90;1.20;;;;;;;32.10;28.35;102285.38;5014756;28;20029;-34
2022/07/16 06:56:07;;;;;;;3.97;1.20;;;;;;;31.18;29.30;102284.25;5014704;28;20372;-34
2022/07/16 06:58:33;;;;;;;7.20;1.38;;;;;;;29.65;31.91;102286.03;5014882;28;20033;-34
2022/07/16 07:00:59;;;;;;;4.97;1.17;;;;;;;27.41;34.92;102291.00;5029658;28;20468;-34
2022/07/16 07:03:25;;;;;;;5.05;1.10;;;;;;;27.06;36.23;102279.22;5014602;28;20026;-34
2022/07/16 07:05:50;;;;;;;8.00;1.55;;;;;;;26.15;38.45;102298.94;5014825;28;20201;-35
2022/07/16 07:08:15;;;;;;;4.90;1.35;;;;;;;24.89;41.60;102308.03;5014312;28;20045;-35
2022/07/16 07:10:41;;;;;;;7.10;1.77;;;;;;;25.47;40.56;102298.66;5014406;28;20466;-34
2022/07/16 07:13:06;;;;;;;5.85;1.33;;;;;;;25.49;40.34;102301.03;5014504;28;20442;-34
2022/07/16 07:15:32;;;;;;;6.22;1.35;;;;;;;25.07;40.76;102305.06;5014606;28;20501;-35
2022/07/16 07:17:57;;;;;;;4.40;1.73;;;;;;;23.74;43.49;102311.09;5014181;28;20030;-34
2022/07/16 07:20:22;;;;;;;7.05;1.60;;;;;;;24.72;41.02;102308.91;5014299;28;20025;-34
2022/07/16 07:22:47;;;;;;;4.93;1.40;;;;;;;23.29;43.06;102309.22;5014232;28;20042;-34
2022/07/16 07:25:13;;;;;;;2.67;0.95;;;;;;;22.85;44.62;102322.03;5014360;28;20104;-34
2022/07/16 07:27:38;;;;;;;7.15;1.25;;;;;;;23.07;43.81;102316.16;5014250;28;20018;-34
2022/07/16 07:30:04;;;;;;;7.68;1.25;;;;;;;22.84;45.07;102312.50;5013884;28;20428;-34
2022/07/16 07:32:29;;;;;;;4.40;1.15;;;;;;;23.16;44.58;102314.75;5013915;28;20367;-34
2022/07/16 07:34:55;;;;;;;6.03;1.48;;;;;;;23.78;43.48;102317.50;5013826;28;20381;-35
2022/07/16 07:37:20;;;;;;;5.45;1.45;;;;;;;24.37;42.66;102329.50;5013397;28;20041;-35
2022/07/16 07:39:46;;;;;;;3.03;1.20;;;;;;;23.87;43.55;102323.19;5014055;28;20108;-34
2022/07/16 07:42:12;;;;;;;3.38;1.10;;;;;;;23.96;44.01;102328.88;5013806;28;20104;-35
2022/07/16 07:44:38;;;;;;;5.32;1.42;;;;;;;23.41;45.41;102320.50;5013694;28;20045;-36
2022/07/16 07:47:03;;;;;;;5.38;1.25;;;;;;;23.47;45.51;102325.88;5013339;28;20037;-37
2022/07/16 07:49:28;;;;;;;7.82;1.25;;;;;;;24.30;42.18;102319.91;5014762;28;20033;-35
2022/07/16 07:51:54;;;;;;;3.75;1.17;;;;;;;24.30;40.93;102327.81;5013969;28;20029;-37
2022/07/16 07:54:19;;;;;;;4.60;1.15;;;;;;;24.74;40.53;102325.31;5013837;28;20021;-34
2022/07/16 07:56:45;;;;;;;5.65;1.42;;;;;;;24.97;40.07;102326.09;5013903;28;20025;-35
2022/07/16 07:59:10;;;;;;;5.93;1.30;;;;;;;24.86;40.37;102321.72;5013829;28;20033;-35
2022/07/16 08:01:35;;;;;;;7.70;1.40;;;;;;;25.03;39.23;102326.97;5013083;28;20026;-34
2022/07/16 08:04:01;;;;;;;5.13;1.20;;;;;;;24.67;40.85;102334.47;5012372;28;20330;-34
2022/07/16 08:06:26;;;;;;;4.03;1.30;;;;;;;24.81;40.77;102346.28;5013988;28;20046;-34
2022/07/16 08:08:51;;;;;;;4.85;1.50;;;;;;;25.42;39.38;102335.63;5012322;28;20033;-34
2022/07/16 08:11:17;;;;;;;4.35;1.08;;;;;;;24.89;39.58;102337.94;5013424;28;20033;-34
2022/07/16 08:13:42;;;;;;;5.53;1.40;;;;;;;25.31;39.32;102347.94;5013824;28;20079;-34
2022/07/16 08:16:07;;;;;;;3.00;1.05;;;;;;;25.05;40.09;102325.66;5013699;28;20025;-34
2022/07/16 08:18:32;;;;;;;4.10;1.15;;;;;;;24.98;39.37;102338.28;5013843;28;20022;-34
2022/07/16 08:20:58;;;;;;;3.25;0.93;;;;;;;25.83;37.93;102344.78;5013541;28;20381;-34
2022/07/16 08:26:07;;;;;;;5.30;1.30;;;;;;;25.15;38.31;102354.94;5013767;28;20183;-34
2022/07/16 08:28:32;;;;;;;9.48;1.60;;;;;;;25.08;38.74;102364.84;5011990;28;20072;-35
2022/07/16 08:30:58;;;;;;;2.92;1.05;;;;;;;24.62;39.58;102364.25;5013498;28;20041;-34
2022/07/16 08:33:23;;;;;;;3.70;1.27;;;;;;;24.58;38.59;102357.84;5013405;28;20057;-34
2022/07/16 08:35:48;;;;;;;1.85;0.75;;;;;;;24.62;38.12;102358.16;5013418;28;20030;-35
2022/07/16 08:38:14;;;;;;;3.45;1.20;;;;;;;24.77;36.84;102372.41;5013122;28;20056;-36
2022/07/16 08:40:41;;;;;;;6.38;1.05;;;;;;;25.14;36.79;102365.75;5013446;28;20026;-34
2022/07/16 08:43:08;;;;;;;10.55;1.25;;;;;;;24.41;36.54;102372.91;5013390;28;20026;-36
2022/07/16 08:45:36;;;;;;;2.45;0.88;;;;;;;24.71;37.69;102378.66;5013359;28;20049;-34
2022/07/16 08:48:02;;;;;;;5.70;1.35;;;;;;;24.40;37.96;102368.66;5013297;28;20381;-34
2022/07/16 08:50:27;;;;;;;7.00;1.25;;;;;;;24.41;37.57;102378.19;5013025;28;20108;-36
2022/07/16 08:52:54;;;;;;;2.63;0.98;;;;;;;24.99;36.91;102379.56;5013251;28;20045;-35
2022/07/16 08:55:23;;;;;;;5.15;1.17;;;;;;;24.39;37.76;102380.25;5012920;28;20026;-35
2022/07/16 08:57:48;;;;;;;5.35;1.10;;;;;;;24.96;36.40;102390.63;5013224;28;20029;-34
2022/07/16 09:00:15;;;;;;;11.00;1.20;;;;;;;25.05;36.62;102388.34;5013174;28;20041;-34
2022/07/16 09:02:41;;;;;;;5.90;1.00;;;;;;;25.15;36.67;102377.94;5013049;28;20385;-35
2022/07/16 09:05:08;;;;;;;3.92;1.00;;;;;;;25.53;35.20;102390.28;5012648;28;20022;-34
2022/07/16 09:07:33;;;;;;;4.35;1.10;;;;;;;25.45;36.07;102401.28;5012713;28;20057;-35
2022/07/16 09:09:58;;;;;;;4.15;0.93;;;;;;;25.98;35.33;102401.56;5012467;28;20472;-36
2022/07/16 09:12:44;;;;;;;4.25;1.10;;;;;;;24.40;36.95;102401.16;5012365;28;20060;-35
2022/07/16 09:15:48;;;;;;;2.30;1.00;;;;;;;24.76;37.48;102405.16;5014803;28;20018;-36
2022/07/16 09:18:15;;;;;;;8.93;1.35;;;;;;;24.98;36.08;102402.56;5033576;28;20045;-36
2022/07/16 09:20:52;;;;;;;7.30;1.50;;;;;;;24.91;36.51;102409.06;5033012;28;20026;-35
2022/07/16 09:23:33;;;;;;;4.90;1.20;;;;;;;25.04;36.24;102399.97;5023145;28;20060;-35
2022/07/16 09:26:01;;;;;;;8.23;1.20;;;;;;;24.28;37.50;102406.53;5015455;28;20014;-35
2022/07/16 09:28:47;;;;;;;5.70;1.13;;;;;;;24.37;38.31;102414.88;5015383;28;20036;-35
2022/07/16 09:31:35;;;;;;;6.72;1.17;;;;;;;23.87;38.95;102415.59;5015242;28;20025;-34
2022/07/16 09:34:15;;;;;;;7.75;1.13;;;;;;;24.40;37.06;102417.03;5016076;28;20026;-34
2022/07/16 09:36:57;;;;;;;5.00;1.10;;;;;;;25.12;36.34;102420.72;5016660;28;20033;-36
2022/07/16 09:39:22;;;;;;;10.63;1.40;;;;;;;24.06;38.62;102424.91;5016000;28;20362;-35
2022/07/16 09:41:47;;;;;;;10.85;1.17;;;;;;;24.41;37.63;102421.25;5015619;28;20037;-35
2022/07/16 09:44:18;;;;;;;5.97;1.30;;;;;;;24.42;39.28;102422.06;5015684;28;20021;-35
2022/07/16 09:47:02;;;;;;;10.43;1.15;;;;;;;25.92;34.32;102432.50;5016811;28;20373;-33
2022/07/16 09:49:29;;;;;;;8.65;1.08;;;;;;;26.00;33.18;102428.63;5015955;28;20022;-35
2022/07/16 09:51:54;;;;;;;6.97;1.50;;;;;;;25.41;34.89;102429.31;5015679;28;20028;-33
2022/07/16 09:54:27;;;;;;;5.47;1.10;;;;;;;25.22;34.87;102431.44;5015619;28;20029;-33
2022/07/16 09:57:09;;;;;;;5.60;1.30;;;;;;;25.37;34.75;102447.50;5015554;28;20022;-38
2022/07/16 09:59:35;;;;;;;4.03;1.08;;;;;;;24.64;35.01;102443.31;5015783;28;20067;-34
2022/07/16 10:02:03;;;;;;;4.00;1.23;;;;;;;23.68;36.58;102438.72;5016394;28;20065;-33
2022/07/16 10:04:28;;;;;;;3.53;1.05;;;;;;;24.76;36.61;102446.66;5015522;28;20052;-34
2022/07/16 10:06:54;;;;;;;5.57;0.90;;;;;;;24.95;36.69;102436.63;5015382;28;20049;-36
2022/07/16 10:09:20;;;;;;;5.35;1.20;;;;;;;24.96;36.68;102441.66;5015379;28;20026;-34
2022/07/16 10:11:46;;;;;;;4.88;1.30;;;;;;;24.96;36.99;102438.22;5015102;28;20029;-35
2022/07/16 10:14:11;;;;;;;9.25;1.17;;;;;;;25.98;35.12;102444.78;5015500;28;20113;-34
2022/07/16 10:16:42;;;;;;;9.15;1.08;;;;;;;25.70;33.92;102437.84;5015322;28;20495;-33
2022/07/16 10:19:09;;;;;;;4.60;1.27;;;;;;;25.54;35.65;102433.41;5014618;28;20080;-34
2022/07/16 10:21:35;;;;;;;4.85;1.10;;;;;;;26.02;34.61;102448.50;5014346;28;20040;-34
2022/07/16 10:24:09;;;;;;;8.07;1.10;;;;;;;25.86;34.49;102450.19;5013958;28;20025;-35
2022/07/16 10:26:35;;;;;;;6.38;1.30;;;;;;;25.72;34.82;102446.34;5015061;28;20022;-34
2022/07/16 10:29:02;;;;;;;5.85;1.20;;;;;;;25.67;35.49;102447.06;5015508;28;20026;-34
2022/07/16 10:31:35;;;;;;;5.22;1.13;;;;;;;25.85;33.71;102450.47;5014911;28;20021;-34
2022/07/16 10:34:13;;;;;;;4.22;1.08;;;;;;;25.78;34.58;102458.56;5015313;28;20041;-34
2022/07/16 10:36:45;;;;;;;5.53;1.13;;;;;;;26.34;34.17;102450.38;5015045;28;20021;-35
2022/07/16 10:39:14;;;;;;;8.57;1.58;;;;;;;26.49;32.07;102455.00;5014792;28;20037;-35
2022/07/16 10:42:00;;;;;;;3.83;1.13;;;;;;;26.40;32.58;102440.63;5014599;28;20111;-36
2022/07/16 10:44:42;;;;;;;5.63;1.35;;;;;;;27.38;33.03;102454.22;5029973;28;20021;-35
2022/07/16 10:47:08;;;;;;;4.30;1.20;;;;;;;25.44;34.53;102468.50;5014412;28;20022;-35
2022/07/16 10:49:34;;;;;;;8.80;1.67;;;;;;;24.47;36.58;102469.72;5014956;28;20109;-36
2022/07/16 10:52:03;;;;;;;5.60;1.45;;;;;;;25.55;35.17;102477.34;5014697;28;20026;-34
2022/07/16 10:54:30;;;;;;;5.60;1.33;;;;;;;25.65;35.00;102470.34;5014792;28;20041;-36
2022/07/16 10:56:58;;;;;;;3.55;1.13;;;;;;;25.61;35.85;102469.25;5014710;28;20045;-34
2022/07/16 10:59:35;;;;;;;6.18;1.30;;;;;;;24.47;36.56;102472.38;5014427;28;20084;-34
2022/07/16 11:02:06;;;;;;;5.38;1.40;;;;;;;24.81;36.06;102464.44;5014673;28;20113;-35
2022/07/16 11:04:53;;;;;;;9.25;1.45;;;;;;;25.88;35.45;102471.16;5013780;28;20370;-35
2022/07/16 11:07:20;;;;;;;3.28;1.20;;;;;;;26.29;33.11;102451.13;5014157;28;20056;-34
2022/07/16 11:09:52;;;;;;;6.05;1.15;;;;;;;25.59;34.25;102473.19;5014753;28;20380;-34
2022/07/16 11:12:20;;;;;;;6.82;1.50;;;;;;;25.58;35.53;102477.69;5013335;28;20025;-33
2022/07/16 11:14:48;;;;;;;8.40;1.10;;;;;;;25.56;35.21;102476.31;5015159;28;20466;-36
2022/07/16 11:17:15;;;;;;;5.88;1.33;;;;;;;25.77;34.89;102474.69;5014070;28;20022;-33
2022/07/16 11:19:44;;;;;;;6.10;1.17;;;;;;;26.62;32.54;102472.38;5014451;28;20029;-33
2022/07/16 11:22:11;;;;;;;6.20;1.17;;;;;;;26.52;33.63;102468.56;5014568;28;20437;-34
2022/07/16 11:25:03;;;;;;;4.95;1.35;;;;;;;26.08;34.17;102475.84;5014631;28;20041;-34
2022/07/16 11:27:36;;;;;;;5.15;1.38;;;;;;;25.31;35.51;102474.16;5014076;28;20087;-34